createdAt,value
2022-10-28T00:00:16.722Z,8.87
2022-10-28T00:01:39.888Z,8.81
2022-10-28T00:02:43.484Z,8.81
2022-10-28T00:03:49.184Z,8.80
2022-10-28T00:04:52.172Z,8.77
2022-10-28T00:06:01.675Z,8.75
2022-10-28T00:07:05.973Z,8.73
2022-10-28T00:08:10.358Z,8.71
2022-10-28T00:09:16.087Z,8.70
2022-10-28T00:10:19.366Z,8.68
2022-10-28T00:11:27.733Z,8.66
2022-10-28T00:12:31.597Z,8.66
2022-10-28T00:13:35.968Z,8.63
2022-10-28T00:14:39.562Z,8.64
2022-10-28T00:15:43.039Z,8.63
2022-10-28T00:16:46.297Z,8.63
2022-10-28T00:17:49.294Z,8.62
2022-10-28T00:18:54.369Z,8.63
2022-10-28T00:19:57.621Z,8.63
2022-10-28T00:21:02.163Z,8.62
2022-10-28T00:22:05.409Z,8.61
2022-10-28T00:23:08.625Z,8.59
2022-10-28T00:24:12.849Z,8.56
2022-10-28T00:25:15.917Z,8.52
2022-10-28T00:26:21.263Z,8.48
2022-10-28T00:27:24.888Z,8.46
2022-10-28T00:28:27.956Z,8.43
2022-10-28T00:29:32.371Z,8.41
2022-10-28T00:30:35.517Z,8.39
2022-10-28T00:31:39.164Z,8.35
2022-10-28T00:32:42.167Z,8.33
2022-10-28T00:33:45.883Z,8.31
2022-10-28T00:34:49.048Z,8.24
2022-10-28T00:35:52.017Z,8.28
2022-10-28T00:36:55.329Z,8.26
2022-10-28T00:37:58.359Z,8.25
2022-10-28T00:39:02.109Z,8.24
2022-10-28T00:40:05.537Z,8.24
2022-10-28T00:41:09.424Z,8.23
2022-10-28T00:42:13.599Z,8.23
2022-10-28T00:43:16.666Z,8.23
2022-10-28T00:44:38.789Z,8.26
2022-10-28T00:45:41.854Z,8.29
2022-10-28T00:46:47.281Z,8.32
2022-10-28T00:47:55.758Z,8.35
2022-10-28T00:49:22.135Z,8.37
2022-10-28T00:50:32.197Z,8.40
2022-10-28T00:51:35.874Z,8.42
2022-10-28T00:52:39.719Z,8.43
2022-10-28T00:53:44.378Z,8.44
2022-10-28T00:54:48.016Z,8.47
2022-10-28T00:55:51.633Z,8.47
2022-10-28T00:56:56.832Z,8.48
2022-10-28T00:58:01.317Z,8.48
2022-10-28T00:59:07.542Z,8.49
2022-10-28T01:00:19.973Z,8.49
2022-10-28T01:01:23.171Z,8.49
2022-10-28T01:02:26.416Z,8.49
2022-10-28T01:03:29.919Z,8.49
2022-10-28T01:04:33.007Z,8.48
2022-10-28T01:05:38.986Z,8.48
2022-10-28T01:06:42.148Z,8.47
2022-10-28T01:07:45.261Z,8.44
2022-10-28T01:08:48.310Z,8.41
2022-10-28T01:09:51.344Z,8.38
2022-10-28T01:11:13.885Z,8.34
2022-10-28T01:12:24.324Z,8.29
2022-10-28T01:13:41.151Z,8.24
2022-10-28T01:15:02.950Z,8.17
2022-10-28T01:16:24.660Z,8.12
2022-10-28T01:17:32.437Z,8.09
2022-10-28T01:18:54.247Z,8.06
2022-10-28T01:19:57.253Z,8.05
2022-10-28T01:21:28.877Z,8.04
2022-10-28T01:22:41.659Z,8.03
2022-10-28T01:24:07.687Z,8.06
2022-10-28T01:25:29.913Z,8.09
2022-10-28T01:26:45.517Z,8.13
2022-10-28T01:27:54.445Z,8.16
2022-10-28T01:28:57.531Z,8.20
2022-10-28T01:30:00.519Z,8.23
2022-10-28T01:31:06.134Z,8.27
2022-10-28T01:32:12.283Z,8.31
2022-10-28T01:33:22.027Z,8.33
2022-10-28T01:34:31.747Z,8.36
2022-10-28T01:35:34.962Z,8.39
2022-10-28T01:36:44.488Z,8.41
2022-10-28T01:37:50.439Z,8.43
2022-10-28T01:39:01.519Z,8.44
2022-10-28T01:40:22.457Z,8.45
2022-10-28T01:41:30.543Z,8.46
2022-10-28T01:42:40.597Z,8.46
2022-10-28T01:43:52.946Z,8.44
2022-10-28T01:45:01.900Z,8.43
2022-10-28T01:46:08.634Z,8.37
2022-10-28T01:47:23.019Z,8.32
2022-10-28T01:49:49.988Z,8.26
2022-10-28T01:50:56.847Z,8.22
2022-10-28T01:52:03.520Z,8.20
2022-10-28T01:53:14.027Z,8.15
2022-10-28T01:54:19.577Z,8.13
2022-10-28T01:55:33.353Z,8.12
2022-10-28T01:56:38.240Z,8.12
2022-10-28T01:57:42.243Z,8.12
2022-10-28T01:58:45.473Z,8.12
2022-10-28T01:59:48.861Z,8.14
2022-10-28T02:00:52.208Z,8.14
2022-10-28T02:01:55.717Z,8.15
2022-10-28T02:02:58.863Z,8.16
2022-10-28T02:04:02.700Z,8.17
2022-10-28T02:05:07.567Z,8.18
2022-10-28T02:06:19.350Z,8.19
2022-10-28T02:07:22.327Z,8.20
2022-10-28T02:08:33.577Z,8.21
2022-10-28T02:09:48.047Z,8.21
2022-10-28T02:11:03.162Z,8.22
2022-10-28T02:12:08.857Z,8.22
2022-10-28T02:13:23.084Z,8.22
2022-10-28T02:14:25.992Z,8.21
2022-10-28T02:15:38.533Z,8.20
2022-10-28T02:16:41.624Z,8.17
2022-10-28T02:17:51.414Z,8.16
2022-10-28T02:18:57.242Z,8.14
2022-10-28T02:20:06.537Z,8.13
2022-10-28T02:21:15.312Z,8.11
2022-10-28T02:22:18.250Z,8.11
2022-10-28T02:23:21.175Z,8.10
2022-10-28T02:24:33.276Z,8.10
2022-10-28T02:25:41.850Z,8.09
2022-10-28T02:26:51.813Z,8.09
2022-10-28T02:27:55.148Z,8.09
2022-10-28T02:29:09.898Z,8.08
2022-10-28T02:30:29.073Z,8.09
2022-10-28T02:31:43.044Z,8.09
2022-10-28T02:32:49.101Z,8.09
2022-10-28T02:33:54.944Z,8.10
2022-10-28T02:34:59.383Z,8.11
2022-10-28T02:36:05.549Z,8.12
2022-10-28T02:37:13.523Z,8.11
2022-10-28T02:38:20.114Z,8.11
2022-10-28T02:39:27.084Z,8.11
2022-10-28T02:40:32.891Z,8.11
2022-10-28T02:41:46.981Z,8.11
2022-10-28T02:42:53.049Z,8.11
2022-10-28T02:43:59.023Z,8.09
2022-10-28T02:45:06.636Z,8.09
2022-10-28T02:46:10.332Z,8.09
2022-10-28T02:47:20.288Z,8.09
2022-10-28T02:48:29.215Z,8.08
2022-10-28T02:49:33.822Z,8.05
2022-10-28T02:50:39.944Z,8.07
2022-10-28T02:51:49.173Z,8.07
2022-10-28T02:52:55.644Z,8.06
2022-10-28T02:53:58.700Z,8.07
2022-10-28T02:55:04.804Z,8.05
2022-10-28T02:56:09.756Z,8.05
2022-10-28T02:57:18.027Z,8.05
2022-10-28T02:58:22.403Z,8.04
2022-10-28T02:59:28.532Z,8.04
2022-10-28T03:00:31.500Z,8.02
2022-10-28T03:01:34.787Z,8.01
2022-10-28T03:02:38.037Z,7.99
2022-10-28T03:03:41.842Z,7.98
2022-10-28T03:04:44.826Z,7.95
2022-10-28T03:05:47.885Z,7.93
2022-10-28T03:06:51.126Z,7.92
2022-10-28T03:07:54.367Z,7.92
2022-10-28T03:08:57.790Z,7.93
2022-10-28T03:10:00.802Z,7.93
2022-10-28T03:11:04.448Z,7.94
2022-10-28T03:12:07.743Z,7.95
2022-10-28T03:13:10.719Z,7.95
2022-10-28T03:14:15.409Z,7.97
2022-10-28T03:15:18.702Z,7.98
2022-10-28T03:16:21.828Z,7.99
2022-10-28T03:17:27.119Z,8.01
2022-10-28T03:18:30.104Z,8.04
2022-10-28T03:19:33.138Z,8.06
2022-10-28T03:20:36.360Z,8.08
2022-10-28T03:21:39.563Z,8.08
2022-10-28T03:22:43.178Z,8.13
2022-10-28T03:23:46.228Z,8.14
2022-10-28T03:24:49.393Z,8.16
2022-10-28T03:25:52.434Z,8.18
2022-10-28T03:26:55.366Z,8.19
2022-10-28T03:27:58.417Z,8.20
2022-10-28T03:29:01.445Z,8.22
2022-10-28T03:30:04.942Z,8.23
2022-10-28T03:31:08.088Z,8.26
2022-10-28T03:32:11.323Z,8.28
2022-10-28T03:33:14.458Z,8.30
2022-10-28T03:34:17.517Z,8.31
2022-10-28T03:35:20.591Z,8.32
2022-10-28T03:36:23.828Z,8.32
2022-10-28T03:37:26.937Z,8.31
2022-10-28T03:38:29.964Z,8.29
2022-10-28T03:39:33.055Z,8.24
2022-10-28T03:40:36.292Z,8.19
2022-10-28T03:41:39.347Z,8.13
2022-10-28T03:42:42.526Z,8.09
2022-10-28T03:43:45.703Z,8.07
2022-10-28T03:44:48.760Z,8.05
2022-10-28T03:45:51.832Z,8.03
2022-10-28T03:46:55.077Z,7.94
2022-10-28T03:47:58.159Z,8.01
2022-10-28T03:49:01.263Z,8.00
2022-10-28T03:50:04.396Z,8.01
2022-10-28T03:51:07.593Z,8.02
2022-10-28T03:52:10.756Z,8.03
2022-10-28T03:53:13.812Z,8.06
2022-10-28T03:54:16.860Z,8.08
2022-10-28T03:55:19.990Z,8.10
2022-10-28T03:56:23.087Z,8.14
2022-10-28T03:57:26.323Z,8.16
2022-10-28T03:58:29.762Z,8.20
2022-10-28T03:59:32.828Z,8.24
2022-10-28T04:00:36.013Z,8.27
2022-10-28T04:01:39.092Z,8.30
2022-10-28T04:02:42.328Z,8.32
2022-10-28T04:03:45.381Z,8.35
2022-10-28T04:04:48.404Z,8.37
2022-10-28T04:05:51.563Z,8.40
2022-10-28T04:06:54.705Z,8.41
2022-10-28T04:07:57.722Z,8.43
2022-10-28T04:09:00.663Z,8.44
2022-10-28T04:10:03.924Z,8.49
2022-10-28T04:11:06.978Z,8.52
2022-10-28T04:12:10.923Z,8.55
2022-10-28T04:13:13.923Z,8.56
2022-10-28T04:14:17.028Z,8.58
2022-10-28T04:15:20.008Z,8.59
2022-10-28T04:16:23.061Z,8.60
2022-10-28T04:17:26.189Z,8.60
2022-10-28T04:18:29.578Z,8.60
2022-10-28T04:19:32.512Z,8.60
2022-10-28T04:20:35.746Z,8.59
2022-10-28T04:21:38.741Z,8.59
2022-10-28T04:22:41.853Z,8.55
2022-10-28T04:23:44.932Z,8.56
2022-10-28T04:24:48.009Z,8.56
2022-10-28T04:25:54.795Z,8.54
2022-10-28T04:26:57.882Z,8.52
2022-10-28T04:28:01.513Z,8.49
2022-10-28T04:29:04.859Z,8.47
2022-10-28T04:30:08.279Z,8.43
2022-10-28T04:31:12.665Z,8.40
2022-10-28T04:32:16.123Z,8.37
2022-10-28T04:33:19.205Z,8.33
2022-10-28T04:34:22.202Z,8.31
2022-10-28T04:35:25.550Z,8.29
2022-10-28T04:36:28.742Z,8.26
2022-10-28T04:37:31.777Z,8.21
2022-10-28T04:38:34.947Z,8.16
2022-10-28T04:39:37.990Z,8.11
2022-10-28T04:40:41.201Z,8.05
2022-10-28T04:41:44.335Z,8.01
2022-10-28T04:42:47.382Z,7.99
2022-10-28T04:43:50.455Z,7.97
2022-10-28T04:44:53.538Z,7.96
2022-10-28T04:45:56.522Z,7.95
2022-10-28T04:46:59.463Z,7.94
2022-10-28T04:48:02.603Z,7.94
2022-10-28T04:49:05.690Z,7.94
2022-10-28T04:50:09.184Z,7.94
2022-10-28T04:51:12.146Z,7.93
2022-10-28T04:52:15.930Z,7.94
2022-10-28T04:53:19.273Z,7.94
2022-10-28T04:54:22.482Z,7.93
2022-10-28T04:55:28.526Z,7.92
2022-10-28T04:56:33.412Z,7.90
2022-10-28T04:57:58.045Z,7.92
2022-10-28T04:59:01.256Z,7.89
2022-10-28T05:00:04.675Z,7.87
2022-10-28T05:01:08.738Z,7.88
2022-10-28T05:02:11.891Z,7.87
2022-10-28T05:03:16.283Z,7.86
2022-10-28T05:04:19.283Z,7.83
2022-10-28T05:05:22.349Z,7.83
2022-10-28T05:06:25.515Z,7.82
2022-10-28T05:07:28.702Z,7.81
2022-10-28T05:08:31.805Z,7.81
2022-10-28T05:09:37.078Z,7.79
2022-10-28T05:10:40.170Z,7.79
2022-10-28T05:11:43.323Z,7.78
2022-10-28T05:12:46.332Z,7.79
2022-10-28T05:13:49.432Z,7.79
2022-10-28T05:14:53.273Z,7.79
2022-10-28T05:15:56.382Z,7.79
2022-10-28T05:16:59.434Z,7.80
2022-10-28T05:18:02.512Z,7.80
2022-10-28T05:19:05.685Z,7.80
2022-10-28T05:20:09.557Z,7.81
2022-10-28T05:21:12.701Z,7.80
2022-10-28T05:22:15.871Z,7.84
2022-10-28T05:23:18.792Z,7.86
2022-10-28T05:24:22.518Z,7.88
2022-10-28T05:25:25.840Z,7.88
2022-10-28T05:26:28.842Z,7.89
2022-10-28T05:27:31.980Z,7.90
2022-10-28T05:28:37.833Z,7.89
2022-10-28T05:29:40.931Z,7.89
2022-10-28T05:30:45.162Z,7.89
2022-10-28T05:31:48.263Z,7.89
2022-10-28T05:32:54.405Z,7.90
2022-10-28T05:33:58.302Z,7.91
2022-10-28T05:35:01.625Z,7.91
2022-10-28T05:36:05.043Z,7.94
2022-10-28T05:37:08.654Z,7.98
2022-10-28T05:38:12.699Z,8.03
2022-10-28T05:39:15.662Z,8.06
2022-10-28T05:40:18.644Z,8.08
2022-10-28T05:41:24.378Z,8.10
2022-10-28T05:42:27.438Z,8.09
2022-10-28T05:43:30.647Z,8.09
2022-10-28T05:44:33.619Z,8.08
2022-10-28T05:45:36.786Z,8.08
2022-10-28T05:46:39.803Z,8.07
2022-10-28T05:47:46.661Z,8.07
2022-10-28T05:48:49.918Z,8.06
2022-10-28T05:49:52.884Z,8.05
2022-10-28T05:50:55.897Z,8.06
2022-10-28T05:51:58.879Z,8.06
2022-10-28T05:53:01.848Z,8.07
2022-10-28T05:54:05.023Z,8.08
2022-10-28T05:55:08.553Z,8.13
2022-10-28T05:56:11.828Z,8.15
2022-10-28T05:57:14.912Z,8.17
2022-10-28T05:58:17.967Z,8.20
2022-10-28T05:59:21.037Z,8.22
2022-10-28T06:00:25.135Z,8.24
2022-10-28T06:01:30.951Z,8.26
2022-10-28T06:02:34.062Z,8.26
2022-10-28T06:03:37.426Z,8.26
2022-10-28T06:04:40.896Z,8.25
2022-10-28T06:05:44.782Z,8.24
2022-10-28T06:06:47.809Z,8.22
2022-10-28T06:07:50.960Z,8.22
2022-10-28T06:08:54.508Z,8.20
2022-10-28T06:09:57.588Z,8.21
2022-10-28T06:11:00.240Z,8.22
2022-10-28T06:12:05.369Z,8.21
2022-10-28T06:13:08.424Z,8.24
2022-10-28T06:14:11.500Z,8.25
2022-10-28T06:15:14.771Z,8.27
2022-10-28T06:16:17.812Z,8.28
2022-10-28T06:17:20.827Z,8.29
2022-10-28T06:18:23.834Z,8.32
2022-10-28T06:19:26.909Z,8.33
2022-10-28T06:20:30.048Z,8.37
2022-10-28T06:21:33.206Z,8.38
2022-10-28T06:22:36.357Z,8.43
2022-10-28T06:23:39.383Z,8.46
2022-10-28T06:24:42.405Z,8.50
2022-10-28T06:25:45.869Z,8.53
2022-10-28T06:26:50.142Z,8.54
2022-10-28T06:27:53.558Z,8.57
2022-10-28T06:28:57.147Z,8.60
2022-10-28T06:30:00.167Z,8.61
2022-10-28T06:31:04.084Z,8.62
2022-10-28T06:32:10.516Z,8.62
2022-10-28T06:33:13.661Z,8.65
2022-10-28T06:34:17.167Z,8.68
2022-10-28T06:35:20.168Z,8.70
2022-10-28T06:36:23.233Z,8.73
2022-10-28T06:37:26.245Z,8.72
2022-10-28T06:38:29.295Z,8.78
2022-10-28T06:39:35.137Z,8.83
2022-10-28T06:40:39.762Z,8.87
2022-10-28T06:41:45.411Z,8.92
2022-10-28T06:42:55.343Z,8.96
2022-10-28T06:43:58.552Z,9.00
2022-10-28T06:45:03.089Z,9.03
2022-10-28T06:46:06.490Z,9.07
2022-10-28T06:47:11.437Z,9.04
2022-10-28T06:48:20.331Z,9.12
2022-10-28T06:49:23.513Z,9.16
2022-10-28T06:50:26.992Z,9.20
2022-10-28T06:51:31.067Z,9.24
2022-10-28T06:52:34.768Z,9.27
2022-10-28T06:53:37.917Z,9.31
2022-10-28T06:54:41.087Z,9.38
2022-10-28T06:55:48.984Z,9.46
2022-10-28T06:56:52.130Z,9.54
2022-10-28T06:57:59.021Z,9.57
2022-10-28T06:59:03.085Z,9.68
2022-10-28T07:00:06.727Z,9.74
2022-10-28T07:01:11.740Z,9.81
2022-10-28T07:02:22.640Z,9.89
2022-10-28T07:03:25.780Z,9.95
2022-10-28T07:04:28.850Z,10.03
2022-10-28T07:05:33.176Z,10.10
2022-10-28T07:06:36.321Z,10.19
2022-10-28T07:07:39.463Z,10.27
2022-10-28T07:08:42.541Z,10.35
2022-10-28T07:09:47.700Z,10.43
2022-10-28T07:10:55.483Z,10.62
2022-10-28T07:12:04.880Z,11.02
2022-10-28T07:13:08.273Z,11.50
2022-10-28T07:14:11.399Z,11.93
2022-10-28T07:15:17.242Z,12.32
2022-10-28T07:16:20.324Z,12.72
2022-10-28T07:17:23.467Z,13.07
2022-10-28T07:18:29.246Z,13.43
2022-10-28T07:19:32.276Z,13.77
2022-10-28T07:20:36.615Z,14.11
2022-10-28T07:21:40.350Z,14.46
2022-10-28T07:22:43.495Z,14.75
2022-10-28T07:23:46.793Z,15.04
2022-10-28T07:24:50.003Z,15.33
2022-10-28T07:27:02.282Z,15.91
2022-10-28T07:28:07.862Z,16.19
2022-10-28T07:29:10.878Z,16.46
2022-10-28T07:30:16.218Z,16.71
2022-10-28T07:31:19.415Z,16.96
2022-10-28T07:32:23.350Z,17.19
2022-10-28T07:33:26.966Z,17.43
2022-10-28T07:34:30.215Z,17.62
2022-10-28T07:35:33.353Z,17.88
2022-10-28T07:36:36.536Z,18.04
2022-10-28T07:37:40.124Z,18.26
2022-10-28T07:38:43.393Z,18.50
2022-10-28T07:39:46.315Z,18.71
2022-10-28T07:40:49.439Z,18.90
2022-10-28T07:41:52.822Z,19.08
2022-10-28T07:42:56.136Z,19.19
2022-10-28T07:44:01.917Z,19.35
2022-10-28T07:45:06.616Z,19.59
2022-10-28T07:46:12.235Z,19.77
2022-10-28T07:47:16.013Z,19.97
2022-10-28T07:48:19.243Z,20.10
2022-10-28T07:49:22.387Z,20.14
2022-10-28T07:50:25.356Z,20.09
2022-10-28T07:51:28.619Z,20.03
2022-10-28T07:52:31.805Z,20.00
2022-10-28T07:53:34.928Z,19.93
2022-10-28T07:54:38.086Z,19.72
2022-10-28T07:55:41.111Z,19.57
2022-10-28T07:56:44.159Z,19.36
2022-10-28T07:57:49.200Z,19.19
2022-10-28T07:58:52.496Z,19.03
2022-10-28T07:59:55.459Z,18.87
2022-10-28T08:01:04.327Z,18.74
2022-10-28T08:02:07.928Z,18.61
2022-10-28T08:03:10.937Z,18.50
2022-10-28T08:04:14.075Z,18.37
2022-10-28T08:05:19.621Z,18.21
2022-10-28T08:06:25.484Z,18.07
2022-10-28T08:07:28.887Z,18.00
2022-10-28T08:08:34.329Z,17.95
2022-10-28T08:09:37.514Z,17.93
2022-10-28T08:10:40.580Z,17.89
2022-10-28T08:11:46.215Z,17.84
2022-10-28T08:12:49.684Z,17.81
2022-10-28T08:13:53.331Z,17.77
2022-10-28T08:14:56.652Z,17.69
2022-10-28T08:15:59.590Z,17.59
2022-10-28T08:17:02.935Z,17.53
2022-10-28T08:18:06.025Z,17.50
2022-10-28T08:19:10.752Z,17.49
2022-10-28T08:20:13.749Z,17.38
2022-10-28T08:21:17.093Z,17.39
2022-10-28T08:22:20.420Z,17.35
2022-10-28T08:23:23.453Z,17.37
2022-10-28T08:24:26.719Z,17.34
2022-10-28T08:25:29.777Z,17.40
2022-10-28T08:26:32.928Z,17.53
2022-10-28T08:27:36.285Z,17.67
2022-10-28T08:28:39.686Z,17.89
2022-10-28T08:29:42.779Z,18.00
2022-10-28T08:30:57.086Z,18.14
2022-10-28T08:32:09.708Z,18.19
2022-10-28T08:33:13.917Z,18.25
2022-10-28T08:34:17.032Z,18.37
2022-10-28T08:35:20.486Z,18.43
2022-10-28T08:36:23.596Z,18.51
2022-10-28T08:37:26.702Z,18.59
2022-10-28T08:38:29.963Z,18.68
2022-10-28T08:39:33.238Z,18.72
2022-10-28T08:40:55.037Z,18.79
2022-10-28T08:41:59.627Z,18.92
2022-10-28T08:43:12.570Z,18.97
2022-10-28T08:44:20.771Z,19.12
2022-10-28T08:45:30.581Z,19.27
2022-10-28T08:46:52.494Z,19.35
2022-10-28T08:49:12.849Z,19.43
2022-10-28T08:50:18.708Z,19.48
2022-10-28T08:51:21.754Z,19.52
2022-10-28T08:52:27.692Z,19.54
2022-10-28T08:53:35.606Z,19.69
2022-10-28T08:54:50.651Z,19.72
2022-10-28T08:55:56.076Z,19.88
2022-10-28T08:57:01.492Z,19.91
2022-10-28T08:58:04.766Z,20.03
2022-10-28T08:59:12.304Z,20.14
2022-10-28T09:00:20.917Z,20.26
2022-10-28T09:01:31.959Z,20.40
2022-10-28T09:02:56.145Z,20.43
2022-10-28T09:04:13.363Z,20.53
2022-10-28T09:05:21.821Z,20.62
2022-10-28T09:06:25.306Z,20.67
2022-10-28T09:07:28.338Z,20.80
2022-10-28T09:08:35.083Z,20.86
2022-10-28T09:09:38.794Z,20.95
2022-10-28T09:10:49.487Z,20.98
2022-10-28T09:11:55.648Z,21.04
2022-10-28T09:12:58.820Z,21.07
2022-10-28T09:14:07.802Z,21.06
2022-10-28T09:15:13.643Z,21.10
2022-10-28T09:16:19.501Z,21.20
2022-10-28T09:17:32.627Z,21.29
2022-10-28T09:18:47.053Z,21.44
2022-10-28T09:19:57.577Z,21.56
2022-10-28T09:21:04.641Z,21.66
2022-10-28T09:22:20.885Z,21.79
2022-10-28T09:23:28.212Z,21.84
2022-10-28T09:24:46.353Z,21.91
2022-10-28T09:25:55.451Z,21.97
2022-10-28T09:27:17.355Z,21.98
2022-10-28T09:28:27.868Z,21.98
2022-10-28T09:29:43.357Z,22.00
2022-10-28T09:30:47.422Z,22.01
2022-10-28T09:31:53.354Z,22.03
2022-10-28T09:33:02.543Z,21.99
2022-10-28T09:34:14.583Z,22.01
2022-10-28T09:35:20.576Z,22.05
2022-10-28T09:36:33.411Z,22.07
2022-10-28T09:37:43.237Z,22.09
2022-10-28T09:38:46.463Z,22.18
2022-10-28T09:40:06.339Z,22.20
2022-10-28T09:41:15.112Z,22.24
2022-10-28T09:42:26.171Z,22.30
2022-10-28T09:43:35.518Z,22.34
2022-10-28T09:44:48.553Z,22.48
2022-10-28T09:45:53.768Z,22.61
2022-10-28T09:46:59.467Z,22.69
2022-10-28T09:48:11.969Z,22.72
2022-10-28T09:49:24.542Z,22.73
2022-10-28T09:50:29.965Z,22.86
2022-10-28T09:51:45.288Z,22.97
2022-10-28T09:52:51.457Z,23.07
2022-10-28T09:53:57.754Z,23.13
2022-10-28T09:55:06.645Z,23.28
2022-10-28T09:56:12.206Z,23.33
2022-10-28T09:57:17.339Z,23.36
2022-10-28T09:58:20.653Z,23.39
2022-10-28T09:59:23.609Z,23.46
2022-10-28T10:00:28.797Z,23.54
2022-10-28T10:01:36.236Z,23.62
2022-10-28T10:02:40.460Z,23.65
2022-10-28T10:03:45.371Z,23.70
2022-10-28T10:04:48.432Z,23.71
2022-10-28T10:05:56.795Z,23.74
2022-10-28T10:07:08.354Z,23.85
2022-10-28T10:08:13.486Z,23.86
2022-10-28T10:09:24.188Z,23.82
2022-10-28T10:10:29.925Z,23.87
2022-10-28T10:11:43.043Z,23.93
2022-10-28T10:12:51.426Z,24.01
2022-10-28T10:13:57.405Z,24.05
2022-10-28T10:15:00.601Z,24.11
2022-10-28T10:16:07.117Z,24.10
2022-10-28T10:17:12.972Z,24.13
2022-10-28T10:18:17.706Z,24.17
2022-10-28T10:19:28.653Z,24.20
2022-10-28T10:20:50.592Z,24.27
2022-10-28T10:21:54.743Z,24.35
2022-10-28T10:22:57.833Z,24.45
2022-10-28T10:24:00.878Z,24.52
2022-10-28T10:25:05.371Z,24.59
2022-10-28T10:26:16.150Z,24.65
2022-10-28T10:27:19.958Z,24.69
2022-10-28T10:28:24.038Z,24.70
2022-10-28T10:29:28.447Z,24.80
2022-10-28T10:30:33.888Z,24.84
2022-10-28T10:31:36.967Z,24.83
2022-10-28T10:32:40.013Z,24.85
2022-10-28T10:33:48.837Z,24.89
2022-10-28T10:34:58.315Z,24.87
2022-10-28T10:36:10.420Z,24.86
2022-10-28T10:37:19.117Z,24.91
2022-10-28T10:38:22.159Z,24.95
2022-10-28T10:39:31.707Z,25.01
2022-10-28T10:40:37.210Z,25.02
2022-10-28T10:41:43.906Z,25.04
2022-10-28T10:42:57.614Z,25.12
2022-10-28T10:44:22.541Z,25.17
2022-10-28T10:45:26.789Z,25.24
2022-10-28T10:46:29.892Z,25.31
2022-10-28T10:47:32.948Z,25.39
2022-10-28T10:48:42.725Z,25.44
2022-10-28T10:49:45.857Z,25.50
2022-10-28T10:50:50.053Z,25.58
2022-10-28T10:51:58.081Z,25.61
2022-10-28T10:53:03.592Z,25.67
2022-10-28T10:54:07.153Z,25.71
2022-10-28T10:55:19.426Z,25.79
2022-10-28T10:56:29.726Z,25.86
2022-10-28T10:57:33.591Z,25.89
2022-10-28T10:58:47.150Z,25.97
2022-10-28T10:59:52.860Z,26.02
2022-10-28T11:00:58.048Z,26.03
2022-10-28T11:02:01.274Z,26.09
2022-10-28T11:03:13.824Z,26.10
2022-10-28T11:04:20.450Z,26.18
2022-10-28T11:05:27.146Z,26.25
2022-10-28T11:06:52.808Z,26.32
2022-10-28T11:07:59.609Z,26.36
2022-10-28T11:09:07.729Z,26.34
2022-10-28T11:10:27.910Z,26.29
2022-10-28T11:11:33.541Z,26.20
2022-10-28T11:12:36.906Z,26.16
2022-10-28T11:13:43.576Z,26.15
2022-10-28T11:14:59.363Z,26.10
2022-10-28T11:16:18.083Z,26.05
2022-10-28T11:17:25.478Z,26.11
2022-10-28T11:18:31.781Z,26.12
2022-10-28T11:19:36.399Z,26.07
2022-10-28T11:20:58.024Z,25.99
2022-10-28T11:22:20.109Z,25.91
2022-10-28T11:23:23.101Z,25.93
2022-10-28T11:25:02.130Z,25.96
2022-10-28T11:26:09.971Z,25.98
2022-10-28T11:27:34.526Z,25.97
2022-10-28T11:28:51.661Z,26.00
2022-10-28T11:29:56.079Z,25.98
2022-10-28T11:31:17.782Z,26.04
2022-10-28T11:32:44.078Z,26.12
2022-10-28T11:34:16.768Z,25.99
2022-10-28T11:35:40.201Z,25.80
2022-10-28T11:36:51.039Z,25.73
2022-10-28T11:37:59.963Z,25.62
2022-10-28T11:39:05.774Z,25.60
2022-10-28T11:40:17.954Z,25.64
2022-10-28T11:41:20.974Z,25.69
2022-10-28T11:42:50.244Z,25.78
2022-10-28T11:44:00.874Z,25.93
2022-10-28T11:45:18.058Z,25.97
2022-10-28T11:46:39.652Z,25.94
2022-10-28T11:47:42.986Z,25.89
2022-10-28T11:48:54.840Z,25.90
2022-10-28T11:50:02.853Z,25.92
2022-10-28T11:51:24.041Z,25.99
2022-10-28T11:52:27.066Z,26.05
2022-10-28T11:53:30.167Z,26.07
2022-10-28T11:54:59.549Z,26.13
2022-10-28T11:56:17.487Z,26.25
2022-10-28T11:57:46.245Z,26.31
2022-10-28T11:58:55.234Z,26.28
2022-10-28T11:59:58.289Z,26.26
2022-10-28T12:01:16.217Z,26.22
2022-10-28T12:02:28.613Z,26.17
2022-10-28T12:03:44.261Z,26.23
2022-10-28T12:05:21.624Z,26.33
2022-10-28T12:06:33.260Z,26.50
2022-10-28T12:07:36.347Z,26.44
2022-10-28T12:08:47.989Z,26.44
2022-10-28T12:09:50.996Z,26.55
2022-10-28T12:11:32.689Z,26.64
2022-10-28T12:12:41.253Z,26.75
2022-10-28T12:13:44.540Z,26.82
2022-10-28T12:14:50.367Z,26.84
2022-10-28T12:16:15.100Z,26.67
2022-10-28T12:17:35.486Z,26.55
2022-10-28T12:18:53.643Z,26.44
2022-10-28T12:20:02.715Z,26.43
2022-10-28T12:21:15.742Z,26.34
2022-10-28T12:22:27.416Z,26.29
2022-10-28T12:23:32.399Z,26.29
2022-10-28T12:24:37.271Z,26.28
2022-10-28T12:25:42.370Z,26.28
2022-10-28T12:26:51.035Z,26.29
2022-10-28T12:28:13.127Z,26.32
2022-10-28T12:29:27.545Z,26.23
2022-10-28T12:30:32.119Z,26.06
2022-10-28T12:31:40.579Z,25.90
2022-10-28T12:32:44.845Z,25.77
2022-10-28T12:33:50.040Z,25.69
2022-10-28T12:35:07.004Z,25.58
2022-10-28T12:36:10.280Z,25.45
2022-10-28T12:37:18.945Z,25.33
2022-10-28T12:38:40.829Z,25.21
2022-10-28T12:39:51.042Z,25.01
2022-10-28T12:40:54.054Z,24.85
2022-10-28T12:41:57.070Z,24.69
2022-10-28T12:43:10.465Z,24.52
2022-10-28T12:44:23.932Z,24.35
2022-10-28T12:45:27.423Z,24.15
2022-10-28T12:46:45.137Z,23.99
2022-10-28T12:47:56.035Z,23.89
2022-10-28T12:49:05.144Z,23.81
2022-10-28T12:50:08.296Z,23.76
2022-10-28T12:51:21.622Z,23.70
2022-10-28T12:52:24.744Z,23.64
2022-10-28T12:53:35.359Z,23.56
2022-10-28T12:54:44.102Z,23.49
2022-10-28T12:55:51.427Z,23.49
2022-10-28T12:57:02.623Z,23.46
2022-10-28T12:58:12.659Z,23.39
2022-10-28T12:59:15.661Z,23.35
2022-10-28T13:00:18.848Z,23.35
2022-10-28T13:01:24.582Z,23.38
2022-10-28T13:02:32.662Z,23.44
2022-10-28T13:03:38.492Z,23.55
2022-10-28T13:04:41.796Z,23.66
2022-10-28T13:05:45.972Z,23.80
2022-10-28T13:07:24.784Z,23.89
2022-10-28T13:08:46.676Z,23.99
2022-10-28T13:09:53.506Z,24.04
2022-10-28T13:10:59.149Z,24.10
2022-10-28T13:12:20.550Z,24.10
2022-10-28T13:13:23.611Z,24.15
2022-10-28T13:14:45.279Z,24.21
2022-10-28T13:15:54.190Z,24.26
2022-10-28T13:17:26.840Z,24.32
2022-10-28T13:18:45.953Z,24.38
2022-10-28T13:19:48.966Z,24.45
2022-10-28T13:20:54.730Z,24.51
2022-10-28T13:22:01.098Z,24.53
2022-10-28T13:23:11.660Z,24.58
2022-10-28T13:24:17.216Z,24.62
2022-10-28T13:25:43.068Z,24.68
2022-10-28T13:26:47.465Z,24.64
2022-10-28T13:27:56.151Z,24.56
2022-10-28T13:29:01.276Z,24.41
2022-10-28T13:30:06.692Z,24.26
2022-10-28T13:31:10.299Z,24.06
2022-10-28T13:32:38.285Z,23.99
2022-10-28T13:33:50.855Z,23.71
2022-10-28T13:34:53.978Z,23.45
2022-10-28T13:36:09.037Z,23.29
2022-10-28T13:37:19.240Z,23.08
2022-10-28T13:38:24.733Z,23.05
2022-10-28T13:39:33.421Z,23.06
2022-10-28T13:40:36.381Z,23.09
2022-10-28T13:41:43.455Z,23.10
2022-10-28T13:42:50.136Z,23.10
2022-10-28T13:43:54.534Z,23.09
2022-10-28T13:45:01.266Z,23.07
2022-10-28T13:46:04.447Z,23.07
2022-10-28T13:47:13.159Z,23.07
2022-10-28T13:48:28.459Z,23.10
2022-10-28T13:49:33.973Z,23.15
2022-10-28T13:50:37.694Z,23.19
2022-10-28T13:51:47.319Z,23.26
2022-10-28T13:53:13.687Z,23.29
2022-10-28T13:54:29.589Z,23.24
2022-10-28T13:55:38.825Z,23.23
2022-10-28T13:56:46.682Z,23.18
2022-10-28T13:57:59.038Z,23.14
2022-10-28T13:59:14.290Z,23.08
2022-10-28T14:00:21.603Z,23.11
2022-10-28T14:02:01.343Z,23.11
2022-10-28T14:03:19.004Z,23.13
2022-10-28T14:04:25.884Z,23.10
2022-10-28T14:05:38.076Z,23.10
2022-10-28T14:06:41.127Z,23.09
2022-10-28T14:07:57.930Z,23.05
2022-10-28T14:09:03.696Z,23.00
2022-10-28T14:10:24.106Z,23.00
2022-10-28T14:11:32.715Z,22.97
2022-10-28T14:12:41.434Z,22.94
2022-10-28T14:13:55.330Z,22.92
2022-10-28T14:15:06.110Z,22.85
2022-10-28T14:16:28.124Z,22.79
2022-10-28T14:17:36.495Z,22.74
2022-10-28T14:18:44.589Z,22.68
2022-10-28T14:19:49.757Z,22.62
2022-10-28T14:20:59.268Z,22.55
2022-10-28T14:22:08.803Z,22.50
2022-10-28T14:23:20.986Z,22.43
2022-10-28T14:24:37.466Z,22.37
2022-10-28T14:25:54.699Z,22.31
2022-10-28T14:27:14.208Z,22.23
2022-10-28T14:28:42.960Z,22.19
2022-10-28T14:29:46.092Z,22.18
2022-10-28T14:31:07.843Z,22.11
2022-10-28T14:32:29.645Z,22.04
2022-10-28T14:33:35.120Z,21.96
2022-10-28T14:34:41.911Z,21.90
2022-10-28T14:35:45.225Z,21.86
2022-10-28T14:36:57.763Z,21.81
2022-10-28T14:38:00.769Z,21.71
2022-10-28T14:39:03.784Z,21.59
2022-10-28T14:40:30.105Z,21.48
2022-10-28T14:41:36.534Z,21.28
2022-10-28T14:42:42.559Z,21.13